Terminal Aerodrome Forecast
Issued by NWS

Home | Current Version | Previous Version | Graphics & Text | Print | Product List | Glossary Off
Versions: 1 2 3 4 5 6 7 8 9 10 11 12 13 14 15 16 17 18 19 20 21 22 23 24 25 26 27 28 29 30 31 32 33 34 35 36 37 38 39 40 41 42 43 44 45 46 47 48 49 50

246
FTUS43 KDDC 201202 AAB
TAFHYS
TAF AMD
KHYS 201202Z 2012/2112 34016KT P6SM -SN SCT012 OVC030
     FM201500 35017G27KT P6SM BKN030
     FM201800 36015G25KT P6SM SKC
     FM210300 01012KT P6SM SKC=

USA.gov is the U.S. government's official web portal to all federal, state and local government web resources and services.